createdAt,value
2023-04-25T00:01:45.763Z,60.70
2023-04-25T00:04:17.481Z,60.60
2023-04-25T00:06:51.570Z,60.70
2023-04-25T00:09:20.104Z,60.60
2023-04-25T00:11:47.932Z,60.60
2023-04-25T00:14:21.093Z,60.60
2023-04-25T00:16:51.330Z,60.60
2023-04-25T00:19:22.673Z,60.70
2023-04-25T00:21:49.574Z,60.60
2023-04-25T00:24:20.631Z,60.60
2023-04-25T00:26:52.291Z,60.60
2023-04-25T00:29:21.005Z,60.60
2023-04-25T00:31:50.081Z,60.60
2023-04-25T00:34:20.485Z,60.60
2023-04-25T00:36:53.595Z,60.60
2023-04-25T00:39:22.206Z,60.60
2023-04-25T00:41:49.362Z,60.60
2023-04-25T00:44:18.232Z,60.60
2023-04-25T00:46:48.436Z,60.60
2023-04-25T00:49:17.865Z,60.50
2023-04-25T00:51:50.042Z,60.50
2023-04-25T00:54:17.716Z,60.50
2023-04-25T00:56:50.619Z,60.60
2023-04-25T00:59:22.848Z,60.50
2023-04-25T01:01:51.979Z,60.50
2023-04-25T01:07:07.491Z,60.50
2023-04-25T01:09:37.654Z,60.50
2023-04-25T01:12:08.046Z,60.60
2023-04-25T01:14:40.397Z,60.50
2023-04-25T01:17:10.775Z,60.60
2023-04-25T01:19:38.860Z,60.50
2023-04-25T01:22:08.242Z,60.60
2023-04-25T01:24:38.035Z,60.60
2023-04-25T01:27:09.677Z,60.50
2023-04-25T01:29:43.257Z,60.60
2023-04-25T01:32:16.113Z,60.60
2023-04-25T01:34:44.592Z,60.60
2023-04-25T01:37:13.778Z,60.60
2023-04-25T01:39:42.128Z,60.50
2023-04-25T01:42:10.200Z,60.60
2023-04-25T01:44:38.091Z,60.50
2023-04-25T01:47:08.886Z,60.60
2023-04-25T01:49:43.055Z,60.50
2023-04-25T01:52:14.346Z,60.50
2023-04-25T01:57:32.814Z,60.50
2023-04-25T02:00:14.603Z,60.50
2023-04-25T02:02:45.216Z,60.50
2023-04-25T02:05:15.828Z,60.50
2023-04-25T02:10:30.120Z,60.60
2023-04-25T02:13:00.944Z,60.60
2023-04-25T02:15:31.337Z,60.60
2023-04-25T02:18:04.259Z,60.60
2023-04-25T02:20:35.106Z,60.60
2023-04-25T02:23:07.121Z,60.50
2023-04-25T02:25:39.070Z,60.60
2023-04-25T02:28:11.235Z,60.60
2023-04-25T02:30:39.006Z,60.60
2023-04-25T02:33:10.289Z,60.50
2023-04-25T02:35:41.778Z,60.50
2023-04-25T02:38:09.648Z,60.50
2023-04-25T02:40:36.633Z,60.60
2023-04-25T02:43:06.625Z,60.50
2023-04-25T02:45:37.138Z,60.50
2023-04-25T02:48:09.120Z,60.50
2023-04-25T02:50:36.867Z,60.50
2023-04-25T02:55:51.993Z,60.50
2023-04-25T02:58:24.606Z,60.50
2023-04-25T03:00:53.790Z,60.50
2023-04-25T03:03:28.287Z,60.50
2023-04-25T03:05:58.249Z,60.50
2023-04-25T03:08:28.811Z,60.50
2023-04-25T03:10:58.954Z,60.50
2023-04-25T03:13:30.618Z,60.50
2023-04-25T03:16:00.007Z,60.50
2023-04-25T03:18:30.389Z,60.50
2023-04-25T03:20:59.197Z,60.50
2023-04-25T03:23:27.466Z,60.50
2023-04-25T03:25:59.205Z,60.50
2023-04-25T03:28:30.987Z,60.40
2023-04-25T03:31:01.252Z,60.50
2023-04-25T03:33:29.189Z,60.50
2023-04-25T03:35:58.958Z,60.40
2023-04-25T03:41:12.085Z,60.40
2023-04-25T03:43:43.440Z,60.40
2023-04-25T03:46:13.595Z,60.40
2023-04-25T03:48:45.622Z,60.50
2023-04-25T03:51:14.693Z,60.50
2023-04-25T03:53:43.908Z,60.40
2023-04-25T03:56:24.652Z,60.40
2023-04-25T03:58:54.490Z,60.40
2023-04-25T04:01:26.496Z,60.40
2023-04-25T04:04:02.574Z,60.50
2023-04-25T04:06:35.529Z,60.50
2023-04-25T04:09:07.549Z,60.50
2023-04-25T04:11:38.710Z,60.50
2023-04-25T04:14:14.272Z,60.40
2023-04-25T04:16:46.231Z,60.40
2023-04-25T04:19:15.177Z,60.50
2023-04-25T04:21:43.053Z,60.50
2023-04-25T04:24:11.973Z,60.50
2023-04-25T04:26:43.156Z,60.60
2023-04-25T04:29:16.136Z,60.40
2023-04-25T04:31:45.324Z,60.50
2023-04-25T04:34:13.662Z,60.40
2023-04-25T04:36:40.990Z,60.40
2023-04-25T04:41:55.836Z,60.40
2023-04-25T04:44:26.283Z,60.40
2023-04-25T04:46:55.935Z,60.40
2023-04-25T04:49:27.247Z,60.40
2023-04-25T04:51:59.737Z,60.40
2023-04-25T04:54:32.168Z,60.30
2023-04-25T04:57:00.668Z,60.30
2023-04-25T04:59:30.733Z,60.30
2023-04-25T05:02:02.619Z,60.30
2023-04-25T05:04:34.294Z,60.90
2023-04-25T05:07:05.877Z,60.20
2023-04-25T05:09:37.156Z,60.20
2023-04-25T05:12:05.495Z,60.20
2023-04-25T05:14:36.461Z,60.20
2023-04-25T05:17:07.736Z,60.20
2023-04-25T05:19:39.238Z,60.20
2023-04-25T05:22:11.252Z,60.10
2023-04-25T05:24:42.726Z,60.10
2023-04-25T05:27:13.115Z,60.10
2023-04-25T05:29:39.998Z,60.10
2023-04-25T05:32:12.307Z,60.00
2023-04-25T05:34:45.136Z,60.00
2023-04-25T05:37:14.085Z,60.00
2023-04-25T05:39:44.329Z,60.00
2023-04-25T05:42:15.829Z,59.90
2023-04-25T05:44:46.028Z,59.90
2023-04-25T05:47:14.082Z,59.90
2023-04-25T05:49:47.360Z,59.90
2023-04-25T05:52:18.862Z,59.90
2023-04-25T05:54:48.942Z,59.80
2023-04-25T05:57:29.232Z,59.80
2023-04-25T06:00:01.614Z,59.90
2023-04-25T06:02:32.395Z,59.90
2023-04-25T06:05:08.832Z,59.90
2023-04-25T06:07:40.239Z,59.70
2023-04-25T06:10:15.561Z,59.60
2023-04-25T06:12:49.391Z,59.50
2023-04-25T06:17:51.717Z,59.50
2023-04-25T06:20:27.034Z,59.40
2023-04-25T06:22:57.606Z,59.40
2023-04-25T06:25:33.318Z,59.30
2023-04-25T06:28:04.628Z,59.80
2023-04-25T06:30:35.140Z,59.10
2023-04-25T06:33:05.282Z,59.00
2023-04-25T06:35:37.979Z,58.90
2023-04-25T06:38:09.194Z,58.90
2023-04-25T06:40:39.690Z,58.80
2023-04-25T06:43:10.498Z,58.70
2023-04-25T06:45:39.488Z,58.70
2023-04-25T06:48:12.959Z,58.70
2023-04-25T06:50:41.580Z,58.80
2023-04-25T06:53:16.840Z,59.20
2023-04-25T06:55:44.964Z,59.60
2023-04-25T06:58:16.115Z,59.40
2023-04-25T07:00:45.686Z,59.40
2023-04-25T07:03:18.645Z,59.40
2023-04-25T07:05:48.335Z,59.20
2023-04-25T07:08:17.489Z,59.10
2023-04-25T07:10:49.783Z,59.00
2023-04-25T07:13:18.185Z,59.00
2023-04-25T07:15:48.029Z,59.00
2023-04-25T07:18:21.236Z,59.00
2023-04-25T07:20:50.601Z,59.10
2023-04-25T07:23:22.295Z,59.00
2023-04-25T07:25:55.177Z,58.80
2023-04-25T07:28:26.493Z,58.90
2023-04-25T07:31:02.303Z,58.80
2023-04-25T07:33:32.728Z,58.70
2023-04-25T07:36:04.116Z,58.70
2023-04-25T07:38:34.095Z,58.80
2023-04-25T07:41:05.108Z,58.70
2023-04-25T07:43:34.361Z,58.60
2023-04-25T07:46:06.769Z,58.70
2023-04-25T07:48:36.933Z,58.50
2023-04-25T07:51:08.480Z,58.50
2023-04-25T07:53:42.207Z,58.50
2023-04-25T07:56:12.458Z,58.30
2023-04-25T07:58:40.607Z,58.20
2023-04-25T08:01:12.558Z,58.40
2023-04-25T08:03:43.473Z,58.30
2023-04-25T08:06:16.375Z,58.30
2023-04-25T08:08:44.999Z,58.30
2023-04-25T08:11:13.776Z,58.10
2023-04-25T08:13:44.392Z,58.30
2023-04-25T08:16:14.717Z,58.30
2023-04-25T08:18:45.094Z,58.20
2023-04-25T08:24:00.678Z,57.90
2023-04-25T08:26:29.023Z,57.80
2023-04-25T08:31:47.258Z,58.00
2023-04-25T08:34:14.606Z,57.90
2023-04-25T08:36:47.193Z,57.90
2023-04-25T08:39:17.213Z,57.90
2023-04-25T08:41:47.802Z,58.10
2023-04-25T08:44:19.819Z,58.10
2023-04-25T08:46:53.249Z,57.90
2023-04-25T08:49:24.777Z,57.80
2023-04-25T08:51:57.752Z,57.80
2023-04-25T08:54:35.686Z,57.70
2023-04-25T08:57:07.595Z,57.70
2023-04-25T08:59:40.258Z,57.90
2023-04-25T09:02:10.744Z,57.80
2023-04-25T09:04:43.185Z,57.90
2023-04-25T09:07:24.459Z,57.90
2023-04-25T09:09:56.292Z,57.70
2023-04-25T09:12:29.442Z,57.80
2023-04-25T09:15:20.584Z,57.80
2023-04-25T09:17:59.507Z,57.70
2023-04-25T09:20:26.739Z,57.40
2023-04-25T09:25:57.020Z,57.20
2023-04-25T09:28:39.784Z,57.40
2023-04-25T09:31:14.597Z,57.30
2023-04-25T09:33:44.881Z,57.10
2023-04-25T09:36:18.905Z,57.40
2023-04-25T09:38:51.336Z,57.40
2023-04-25T09:41:28.376Z,57.40
2023-04-25T09:44:12.613Z,57.60
2023-04-25T09:46:44.698Z,57.70
2023-04-25T09:49:21.180Z,57.60
2023-04-25T09:52:01.910Z,57.70
2023-04-25T09:54:31.980Z,57.60
2023-04-25T09:57:13.122Z,57.60
2023-04-25T10:00:03.537Z,57.50
2023-04-25T10:02:44.334Z,57.20
2023-04-25T10:05:17.534Z,57.20
2023-04-25T10:07:55.208Z,57.00
2023-04-25T10:10:36.676Z,57.00
2023-04-25T10:13:07.505Z,56.70
2023-04-25T10:15:40.683Z,56.60
2023-04-25T10:18:12.948Z,56.60
2023-04-25T10:20:47.277Z,56.40
2023-04-25T10:23:18.724Z,56.30
2023-04-25T10:25:52.202Z,56.10
2023-04-25T10:28:22.154Z,56.30
2023-04-25T10:31:19.830Z,56.30
2023-04-25T10:33:51.662Z,56.50
2023-04-25T10:36:33.926Z,56.70
2023-04-25T10:39:09.317Z,56.90
2023-04-25T10:42:11.133Z,57.00
2023-04-25T10:45:03.017Z,57.00
2023-04-25T10:47:50.196Z,57.00
2023-04-25T10:50:21.461Z,56.90
2023-04-25T10:52:51.844Z,56.80
2023-04-25T10:55:21.550Z,57.00
2023-04-25T11:03:25.030Z,57.10
2023-04-25T11:08:53.908Z,57.10
2023-04-25T11:14:07.612Z,57.20
2023-04-25T11:14:37.831Z,56.80
2023-04-25T11:16:36.562Z,57.10
2023-04-25T11:19:07.345Z,56.80
2023-04-25T11:21:34.237Z,56.80
2023-04-25T11:24:06.096Z,57.00
2023-04-25T11:26:36.899Z,57.00
2023-04-25T11:29:09.246Z,57.00
2023-04-25T11:31:37.606Z,56.70
2023-04-25T11:34:06.620Z,56.70
2023-04-25T11:36:36.786Z,56.40
2023-04-25T11:39:09.550Z,56.30
2023-04-25T11:41:42.958Z,56.10
2023-04-25T11:44:11.641Z,55.90
2023-04-25T11:46:39.805Z,55.90
2023-04-25T11:49:12.304Z,56.00
2023-04-25T11:51:41.648Z,56.20
2023-04-25T11:54:12.003Z,56.00
2023-04-25T11:56:50.214Z,56.20
2023-04-25T11:59:20.744Z,56.40
2023-04-25T12:01:54.417Z,56.40
2023-04-25T12:04:28.034Z,56.40
2023-04-25T12:06:56.837Z,56.40
2023-04-25T12:09:36.488Z,56.30
2023-04-25T12:12:07.393Z,56.40
2023-04-25T12:14:41.093Z,56.50
2023-04-25T12:17:15.889Z,56.50
2023-04-25T12:19:48.209Z,56.60
2023-04-25T12:22:25.493Z,56.60
2023-04-25T12:24:54.886Z,57.30
2023-04-25T12:27:25.270Z,56.80
2023-04-25T12:30:02.973Z,56.80
2023-04-25T12:32:35.049Z,56.70
2023-04-25T12:37:54.007Z,56.20
2023-04-25T12:40:26.444Z,56.00
2023-04-25T12:42:54.502Z,55.80
2023-04-25T12:45:25.995Z,55.90
2023-04-25T12:47:55.914Z,55.90
2023-04-25T12:50:25.231Z,55.80
2023-04-25T12:52:56.306Z,55.40
2023-04-25T12:55:24.428Z,55.30
2023-04-25T12:57:57.651Z,55.10
2023-04-25T13:00:25.927Z,55.10
2023-04-25T13:02:54.016Z,54.50
2023-04-25T13:05:25.944Z,53.70
2023-04-25T13:07:56.514Z,54.10
2023-04-25T13:10:27.992Z,54.40
2023-04-25T13:13:00.013Z,54.60
2023-04-25T13:15:28.964Z,54.60
2023-04-25T13:17:59.159Z,55.00
2023-04-25T13:20:26.332Z,54.90
2023-04-25T13:25:42.191Z,54.90
2023-04-25T13:28:10.043Z,54.50
2023-04-25T13:30:37.957Z,54.10
2023-04-25T13:33:12.839Z,53.90
2023-04-25T13:35:45.090Z,54.00
2023-04-25T13:41:01.264Z,53.60
2023-04-25T13:43:30.604Z,53.70
2023-04-25T13:46:02.976Z,53.70
2023-04-25T13:48:34.581Z,54.00
2023-04-25T13:51:05.054Z,54.00
2023-04-25T13:53:33.813Z,54.10
2023-04-25T13:56:04.069Z,54.20
2023-04-25T13:58:34.432Z,54.30
2023-04-25T14:01:07.064Z,54.60
2023-04-25T14:03:38.615Z,54.50
2023-04-25T14:06:08.896Z,54.60
2023-04-25T14:08:38.754Z,54.50
2023-04-25T14:11:10.326Z,54.70
2023-04-25T14:13:40.337Z,54.50
2023-04-25T14:16:21.219Z,54.60
2023-04-25T14:18:52.768Z,54.70
2023-04-25T14:21:24.108Z,54.40
2023-04-25T14:23:54.193Z,54.00
2023-04-25T14:26:26.389Z,54.00
2023-04-25T14:28:54.411Z,54.00
2023-04-25T14:31:24.210Z,54.00
2023-04-25T14:33:59.072Z,54.00
2023-04-25T14:36:32.220Z,54.00
2023-04-25T14:39:09.728Z,54.10
2023-04-25T14:41:41.784Z,54.40
2023-04-25T14:44:18.281Z,53.80
2023-04-25T14:46:48.807Z,53.60
2023-04-25T14:49:20.874Z,53.40
2023-04-25T14:51:55.030Z,53.80
2023-04-25T14:54:23.340Z,54.00
2023-04-25T14:56:52.113Z,53.80
2023-04-25T14:59:24.341Z,53.30
2023-04-25T15:01:58.349Z,53.50
2023-04-25T15:04:31.074Z,53.50
2023-04-25T15:07:07.958Z,54.00
2023-04-25T15:09:38.382Z,54.20
2023-04-25T15:12:09.202Z,54.40
2023-04-25T15:14:38.380Z,53.90
2023-04-25T15:17:08.907Z,54.00
2023-04-25T15:19:40.281Z,54.20
2023-04-25T15:22:10.475Z,54.00
2023-04-25T15:24:42.727Z,54.10
2023-04-25T15:27:14.548Z,54.00
2023-04-25T15:29:45.467Z,53.70
2023-04-25T15:32:13.883Z,54.30
2023-04-25T15:34:49.207Z,54.00
2023-04-25T15:37:20.379Z,54.00
2023-04-25T15:39:55.999Z,53.40
2023-04-25T15:42:27.587Z,53.40
2023-04-25T15:45:01.050Z,53.90
2023-04-25T15:47:31.286Z,53.50
2023-04-25T15:50:02.121Z,53.40
2023-04-25T15:52:31.322Z,53.70
2023-04-25T15:55:02.248Z,53.60
2023-04-25T15:57:28.901Z,52.80
2023-04-25T16:00:00.387Z,53.30
2023-04-25T16:02:33.624Z,53.70
2023-04-25T16:05:04.345Z,53.10
2023-04-25T16:07:42.239Z,52.80
2023-04-25T16:10:13.505Z,52.80
2023-04-25T16:12:42.354Z,52.90
2023-04-25T16:15:15.563Z,52.30
2023-04-25T16:17:42.987Z,52.10
2023-04-25T16:20:15.548Z,51.90
2023-04-25T16:22:46.548Z,52.30
2023-04-25T16:25:16.695Z,53.00
2023-04-25T16:30:31.116Z,51.90
2023-04-25T16:33:02.558Z,52.00
2023-04-25T16:35:33.108Z,52.50
2023-04-25T16:38:05.199Z,52.60
2023-04-25T16:43:22.260Z,52.80
2023-04-25T16:45:52.631Z,53.00
2023-04-25T16:48:27.293Z,52.80
2023-04-25T16:50:55.603Z,52.20
2023-04-25T16:53:28.036Z,52.50
2023-04-25T16:56:00.010Z,52.60
2023-04-25T16:58:32.720Z,52.30
2023-04-25T17:01:01.258Z,52.10
2023-04-25T17:03:31.292Z,52.60
2023-04-25T17:06:05.231Z,52.50
2023-04-25T17:08:34.135Z,52.40
2023-04-25T17:11:03.400Z,53.00
2023-04-25T17:13:33.037Z,52.80
2023-04-25T17:16:00.002Z,52.70
2023-04-25T17:18:34.454Z,52.50
2023-04-25T17:21:03.899Z,53.20
2023-04-25T17:23:36.317Z,52.90
2023-04-25T17:26:10.593Z,52.80
2023-04-25T17:28:40.656Z,53.00
2023-04-25T17:31:17.230Z,53.10
2023-04-25T17:33:46.761Z,52.80
2023-04-25T17:36:17.152Z,53.20
2023-04-25T17:38:49.737Z,53.50
2023-04-25T17:41:19.857Z,53.90
2023-04-25T17:43:53.272Z,53.90
2023-04-25T17:46:23.544Z,54.20
2023-04-25T17:48:53.154Z,54.50
2023-04-25T17:51:23.402Z,54.60
2023-04-25T17:53:59.786Z,54.50
2023-04-25T17:56:30.404Z,54.20
2023-04-25T17:59:01.452Z,54.50
2023-04-25T18:01:33.042Z,54.40
2023-04-25T18:04:06.126Z,54.40
2023-04-25T18:06:37.569Z,55.00
2023-04-25T18:09:19.573Z,55.00
2023-04-25T18:11:51.061Z,55.60
2023-04-25T18:14:22.716Z,56.40
2023-04-25T18:16:53.423Z,56.60
2023-04-25T18:22:07.001Z,55.90
2023-04-25T18:24:37.321Z,55.80
2023-04-25T18:27:09.321Z,55.60
2023-04-25T18:29:40.926Z,55.60
2023-04-25T18:32:11.294Z,55.90
2023-04-25T18:34:46.392Z,55.80
2023-04-25T18:37:17.081Z,55.70
2023-04-25T18:39:46.946Z,55.90
2023-04-25T18:42:19.088Z,55.50
2023-04-25T18:44:49.279Z,56.00
2023-04-25T18:47:22.965Z,55.00
2023-04-25T18:49:55.864Z,55.10
2023-04-25T18:52:26.443Z,54.80
2023-04-25T18:54:54.860Z,55.30
2023-04-25T18:57:26.784Z,55.40
2023-04-25T18:59:57.612Z,55.40
2023-04-25T19:02:28.698Z,55.50
2023-04-25T19:04:58.407Z,55.60
2023-04-25T19:07:30.958Z,55.70
2023-04-25T19:10:01.309Z,55.70
2023-04-25T19:12:35.510Z,55.70
2023-04-25T19:15:07.663Z,55.70
2023-04-25T19:17:39.513Z,55.70
2023-04-25T19:20:10.920Z,55.70
2023-04-25T19:22:42.736Z,55.80
2023-04-25T19:25:11.547Z,55.60
2023-04-25T19:27:42.080Z,55.50
2023-04-25T19:30:14.999Z,55.40
2023-04-25T19:32:45.660Z,55.30
2023-04-25T19:35:16.875Z,55.40
2023-04-25T19:37:59.798Z,55.40
2023-04-25T19:40:31.231Z,55.10
2023-04-25T19:42:59.369Z,54.80
2023-04-25T19:45:31.729Z,54.60
2023-04-25T19:48:06.977Z,54.60
2023-04-25T19:50:38.886Z,54.50
2023-04-25T19:53:10.618Z,54.60
2023-04-25T19:55:40.084Z,54.50
2023-04-25T19:58:08.188Z,54.50
2023-04-25T20:00:38.167Z,54.40
2023-04-25T20:03:06.488Z,54.40
2023-04-25T20:05:36.832Z,54.30
2023-04-25T20:08:05.982Z,54.30
2023-04-25T20:10:34.964Z,54.30
2023-04-25T20:13:05.275Z,54.50
2023-04-25T20:15:35.975Z,54.70
2023-04-25T20:18:06.929Z,54.50
2023-04-25T20:20:37.282Z,54.70
2023-04-25T20:23:07.386Z,54.60
2023-04-25T20:25:40.434Z,54.70
2023-04-25T20:28:10.673Z,54.70
2023-04-25T20:30:41.070Z,54.80
2023-04-25T20:33:08.008Z,54.70
2023-04-25T20:35:40.585Z,54.90
2023-04-25T20:38:12.183Z,54.90
2023-04-25T20:40:45.763Z,54.90
2023-04-25T20:43:15.413Z,54.80
2023-04-25T20:45:47.276Z,54.90
2023-04-25T20:48:18.614Z,54.90
2023-04-25T20:50:50.220Z,54.80
2023-04-25T20:53:22.834Z,54.90
2023-04-25T20:55:54.622Z,54.90
2023-04-25T20:58:24.304Z,54.80
2023-04-25T21:00:55.715Z,54.80
2023-04-25T21:03:28.570Z,54.80
2023-04-25T21:06:01.274Z,54.80
2023-04-25T21:08:31.081Z,54.80
2023-04-25T21:11:01.547Z,54.80
2023-04-25T21:13:29.550Z,54.80
2023-04-25T21:16:02.916Z,54.90
2023-04-25T21:18:35.927Z,54.90
2023-04-25T21:21:08.804Z,54.90
2023-04-25T21:23:40.125Z,54.90
2023-04-25T21:26:08.831Z,54.80
2023-04-25T21:28:39.151Z,54.90
2023-04-25T21:31:08.981Z,54.90
2023-04-25T21:33:41.229Z,54.90
2023-04-25T21:36:12.199Z,55.00
2023-04-25T21:38:42.798Z,54.90
2023-04-25T21:41:11.975Z,54.90
2023-04-25T21:43:43.194Z,55.10
2023-04-25T21:46:23.144Z,55.00
2023-04-25T21:48:55.765Z,55.10
2023-04-25T21:51:28.048Z,55.10
2023-04-25T21:54:01.896Z,55.10
2023-04-25T21:56:34.158Z,55.10
2023-04-25T21:59:05.803Z,55.20
2023-04-25T22:01:34.830Z,55.20
2023-04-25T22:04:05.879Z,55.20
2023-04-25T22:06:37.728Z,55.10
2023-04-25T22:09:05.427Z,55.20
2023-04-25T22:11:56.257Z,55.20
2023-04-25T22:14:32.240Z,55.10
2023-04-25T22:17:03.824Z,55.20
2023-04-25T22:19:34.258Z,55.20
2023-04-25T22:22:03.830Z,55.20
2023-04-25T22:24:35.801Z,55.20
2023-04-25T22:27:10.458Z,55.20
2023-04-25T22:29:40.260Z,55.20
2023-04-25T22:32:12.569Z,55.20
2023-04-25T22:34:46.668Z,55.20
2023-04-25T22:37:18.803Z,55.20
2023-04-25T22:42:33.249Z,55.20
2023-04-25T22:45:03.207Z,55.20
2023-04-25T22:47:31.877Z,55.20
2023-04-25T22:50:03.749Z,55.20
2023-04-25T22:52:36.235Z,55.20
2023-04-25T22:55:04.564Z,55.10
2023-04-25T22:57:33.706Z,55.10
2023-04-25T23:00:03.502Z,55.10
2023-04-25T23:02:34.616Z,55.10
2023-04-25T23:05:09.163Z,55.10
2023-04-25T23:07:37.532Z,55.10
2023-04-25T23:10:10.400Z,55.10
2023-04-25T23:12:42.441Z,55.20
2023-04-25T23:15:16.101Z,55.00
2023-04-25T23:17:45.432Z,55.10
2023-04-25T23:20:19.961Z,55.00
2023-04-25T23:22:53.989Z,55.00
2023-04-25T23:25:25.362Z,55.00
2023-04-25T23:27:55.257Z,55.00
2023-04-25T23:30:28.781Z,55.00
2023-04-25T23:33:00.543Z,55.10
2023-04-25T23:35:32.710Z,55.10
2023-04-25T23:38:04.534Z,55.10
2023-04-25T23:40:36.025Z,55.10
2023-04-25T23:43:06.264Z,55.00
2023-04-25T23:45:37.397Z,55.10
2023-04-25T23:48:09.156Z,55.00
2023-04-25T23:50:40.634Z,55.00
2023-04-25T23:53:11.442Z,55.00
2023-04-25T23:55:42.884Z,55.00
2023-04-25T23:58:13.818Z,55.00
